createdAt,value
2022-11-15T00:02:27.097Z,22.02
2022-11-15T00:05:15.477Z,29.65
2022-11-15T00:08:02.385Z,37.30
2022-11-15T00:10:56.709Z,33.95
2022-11-15T00:13:43.771Z,35.25
2022-11-15T00:16:30.729Z,36.15
2022-11-15T00:19:18.031Z,38.28
2022-11-15T00:22:06.375Z,39.00
2022-11-15T00:24:53.226Z,37.63
2022-11-15T00:27:40.353Z,43.10
2022-11-15T00:30:27.420Z,41.17
2022-11-15T00:33:14.407Z,41.60
2022-11-15T00:36:05.430Z,45.00
2022-11-15T00:38:53.783Z,44.63
2022-11-15T00:41:40.827Z,45.80
2022-11-15T00:44:27.552Z,45.28
2022-11-15T00:47:14.106Z,34.65
2022-11-15T00:50:01.183Z,36.45
2022-11-15T00:52:48.351Z,45.40
2022-11-15T00:55:36.834Z,33.50
2022-11-15T00:58:24.040Z,41.40
2022-11-15T01:01:12.130Z,39.85
2022-11-15T01:04:01.485Z,37.88
2022-11-15T01:06:49.104Z,32.78
2022-11-15T01:09:36.289Z,34.92
2022-11-15T01:12:24.889Z,28.48
2022-11-15T01:15:12.204Z,35.88
2022-11-15T01:17:59.303Z,28.52
2022-11-15T01:20:46.467Z,35.78
2022-11-15T01:23:33.839Z,24.52
2022-11-15T01:26:20.987Z,38.35
2022-11-15T01:29:09.285Z,39.13
2022-11-15T01:31:56.254Z,23.55
2022-11-15T01:34:43.057Z,28.48
2022-11-15T01:37:29.992Z,41.17
2022-11-15T01:40:17.115Z,37.65
2022-11-15T01:43:22.778Z,38.95
2022-11-15T01:46:24.221Z,41.47
2022-11-15T01:49:14.899Z,36.42
2022-11-15T01:52:03.359Z,44.65
2022-11-15T01:54:53.194Z,35.20
2022-11-15T01:57:40.367Z,31.05
2022-11-15T02:00:27.357Z,40.67
2022-11-15T02:03:15.797Z,34.67
2022-11-15T02:06:04.398Z,44.30
2022-11-15T02:08:51.975Z,44.03
2022-11-15T02:11:39.095Z,39.20
2022-11-15T02:14:27.784Z,48.05
2022-11-15T02:17:26.318Z,49.05
2022-11-15T02:20:49.419Z,38.13
2022-11-15T02:24:07.869Z,43.33
2022-11-15T02:27:10.306Z,44.67
2022-11-15T02:30:30.005Z,30.92
2022-11-15T02:33:29.457Z,44.47
2022-11-15T02:36:20.356Z,31.02
2022-11-15T02:39:11.616Z,41.53
2022-11-15T02:42:02.768Z,37.42
2022-11-15T02:44:49.807Z,32.83
2022-11-15T02:47:43.109Z,35.85
2022-11-15T02:50:32.624Z,49.83
2022-11-15T02:53:19.768Z,49.65
2022-11-15T02:56:06.728Z,46.80
2022-11-15T02:59:15.341Z,43.88
2022-11-15T03:02:12.011Z,36.45
2022-11-15T03:05:02.234Z,46.22
2022-11-15T03:10:48.766Z,42.50
2022-11-15T03:13:39.327Z,43.63
2022-11-15T03:16:29.050Z,38.20
2022-11-15T03:19:20.945Z,45.13
2022-11-15T03:22:11.958Z,35.10
2022-11-15T03:25:03.417Z,46.85
2022-11-15T03:27:53.715Z,48.08
2022-11-15T03:30:42.117Z,46.50
2022-11-15T03:33:30.768Z,19.05
2022-11-15T03:36:18.546Z,39.17
2022-11-15T03:39:08.689Z,51.92
2022-11-15T03:42:04.721Z,43.40
2022-11-15T03:44:56.683Z,47.47
2022-11-15T03:47:46.369Z,47.08
2022-11-15T03:50:33.870Z,39.58
2022-11-15T03:53:21.014Z,22.33
2022-11-15T03:56:07.877Z,44.47
2022-11-15T03:58:56.483Z,38.50
2022-11-15T04:01:44.001Z,43.30
2022-11-15T04:04:31.062Z,43.75
2022-11-15T04:07:18.291Z,40.95
2022-11-15T04:10:06.682Z,41.15
2022-11-15T04:12:54.038Z,46.13
2022-11-15T04:15:42.660Z,45.00
2022-11-15T04:18:29.914Z,48.47
2022-11-15T04:21:34.888Z,42.38
2022-11-15T04:24:21.831Z,46.30
2022-11-15T04:27:09.034Z,45.85
2022-11-15T04:29:56.295Z,43.58
2022-11-15T04:32:44.999Z,42.45
2022-11-15T04:35:32.591Z,43.92
2022-11-15T04:38:19.299Z,29.52
2022-11-15T04:41:06.215Z,42.03
2022-11-15T04:43:53.151Z,42.95
2022-11-15T04:46:40.214Z,42.60
2022-11-15T04:49:28.496Z,44.30
2022-11-15T04:52:15.255Z,46.28
2022-11-15T04:55:07.760Z,42.35
2022-11-15T04:58:01.675Z,43.42
2022-11-15T05:00:49.001Z,44.15
2022-11-15T05:03:53.848Z,45.40
2022-11-15T05:06:42.600Z,44.78
2022-11-15T05:09:29.467Z,41.05
2022-11-15T05:12:16.960Z,44.13
2022-11-15T05:15:04.428Z,43.45
2022-11-15T05:17:51.262Z,45.13
2022-11-15T05:20:38.194Z,40.05
2022-11-15T05:23:26.315Z,44.20
2022-11-15T05:26:13.282Z,48.20
2022-11-15T05:29:01.453Z,50.45
2022-11-15T05:31:48.282Z,49.92
2022-11-15T05:34:35.186Z,46.10
2022-11-15T05:37:22.149Z,44.40
2022-11-15T05:40:11.465Z,37.00
2022-11-15T05:42:58.537Z,38.72
2022-11-15T05:45:45.519Z,48.58
2022-11-15T05:48:32.707Z,47.90
2022-11-15T05:51:20.768Z,39.78
2022-11-15T05:54:07.926Z,26.52
2022-11-15T05:56:57.025Z,43.20
2022-11-15T05:59:44.529Z,38.13
2022-11-15T06:02:31.566Z,47.65
2022-11-15T06:05:18.348Z,43.60
2022-11-15T06:08:05.669Z,45.20
2022-11-15T06:10:52.847Z,42.13
2022-11-15T06:13:41.500Z,36.40
2022-11-15T06:16:28.490Z,40.70
2022-11-15T06:19:15.894Z,36.35
2022-11-15T06:22:03.079Z,36.83
2022-11-15T06:24:49.952Z,46.30
2022-11-15T06:27:36.858Z,37.58
2022-11-15T06:30:26.605Z,41.90
2022-11-15T06:33:13.588Z,19.95
2022-11-15T06:36:03.028Z,29.15
2022-11-15T06:38:50.486Z,36.47
2022-11-15T06:41:38.904Z,26.92
2022-11-15T06:44:26.058Z,30.70
2022-11-15T06:47:14.534Z,42.05
2022-11-15T06:50:01.687Z,26.02
2022-11-15T06:52:48.951Z,39.58
2022-11-15T06:55:35.884Z,41.45
2022-11-15T06:58:23.289Z,16.20
2022-11-15T07:01:13.144Z,36.13
2022-11-15T07:04:01.847Z,33.08
2022-11-15T07:06:49.486Z,35.28
2022-11-15T07:09:36.526Z,26.70
2022-11-15T07:12:23.688Z,19.73
2022-11-15T07:15:11.890Z,21.80
2022-11-15T07:18:02.679Z,31.92
2022-11-15T07:20:50.994Z,35.58
2022-11-15T07:23:39.087Z,33.92
2022-11-15T07:26:26.318Z,33.50
2022-11-15T07:29:13.178Z,35.03
2022-11-15T07:32:00.188Z,18.48
2022-11-15T07:34:49.773Z,29.58
2022-11-15T07:37:38.222Z,34.70
2022-11-15T07:40:25.803Z,35.75
2022-11-15T07:43:13.093Z,34.90
2022-11-15T07:46:00.027Z,31.60
2022-11-15T07:48:47.086Z,29.08
2022-11-15T07:51:33.820Z,31.60
2022-11-15T07:54:22.135Z,29.17
2022-11-15T07:57:10.237Z,31.58
2022-11-15T07:59:57.553Z,30.05
2022-11-15T08:02:44.986Z,31.35
2022-11-15T08:05:32.779Z,24.92
2022-11-15T08:08:19.863Z,28.77
2022-11-15T08:11:07.666Z,20.77
2022-11-15T08:13:54.490Z,23.55
2022-11-15T08:16:41.907Z,25.40
2022-11-15T08:19:29.418Z,31.08
2022-11-15T08:22:16.838Z,29.80
2022-11-15T08:25:03.807Z,33.42
2022-11-15T08:27:55.394Z,17.08
2022-11-15T08:30:46.346Z,32.55
2022-11-15T08:33:34.115Z,26.52
2022-11-15T08:36:21.553Z,31.58
2022-11-15T08:39:12.353Z,29.10
2022-11-15T08:44:48.105Z,29.52
2022-11-15T08:47:35.323Z,31.30
2022-11-15T08:50:22.359Z,26.30
2022-11-15T08:53:09.719Z,21.30
2022-11-15T08:55:57.073Z,31.15
2022-11-15T08:58:44.328Z,30.80
2022-11-15T09:01:33.658Z,31.63
2022-11-15T09:04:20.913Z,30.80
2022-11-15T09:07:08.010Z,28.77
2022-11-15T09:09:55.019Z,31.05
2022-11-15T09:12:42.107Z,30.17
2022-11-15T09:15:29.093Z,31.65
2022-11-15T09:18:17.321Z,27.75
2022-11-15T09:21:05.379Z,24.42
2022-11-15T09:23:53.455Z,32.25
2022-11-15T09:26:40.739Z,25.90
2022-11-15T09:29:27.662Z,26.42
2022-11-15T09:32:14.362Z,33.28
2022-11-15T09:35:02.837Z,32.88
2022-11-15T09:37:54.984Z,32.45
2022-11-15T09:40:43.218Z,28.17
2022-11-15T09:43:34.977Z,29.75
2022-11-15T09:46:26.761Z,23.08
2022-11-15T09:49:16.586Z,30.45
2022-11-15T09:52:03.294Z,31.65
2022-11-15T09:57:27.084Z,31.38
2022-11-15T10:03:05.183Z,30.35
2022-11-15T10:05:34.696Z,25.42
2022-11-15T10:08:12.544Z,29.37
2022-11-15T10:10:42.516Z,30.73
2022-11-15T10:15:39.810Z,32.35
2022-11-15T10:18:11.488Z,31.48
2022-11-15T10:20:49.036Z,31.73
2022-11-15T10:23:21.971Z,28.83
2022-11-15T10:25:53.136Z,32.92
2022-11-15T10:28:24.690Z,31.27
2022-11-15T10:30:55.424Z,31.70
2022-11-15T10:33:35.575Z,30.60
2022-11-15T10:36:23.266Z,34.17
2022-11-15T10:39:01.855Z,35.38
2022-11-15T10:41:37.001Z,32.60
2022-11-15T10:44:13.935Z,36.28
2022-11-15T10:46:47.886Z,33.15
2022-11-15T10:49:17.750Z,37.78
2022-11-15T10:51:49.170Z,33.85
2022-11-15T10:54:23.268Z,28.95
2022-11-15T10:56:53.104Z,34.42
2022-11-15T10:59:26.247Z,32.13
2022-11-15T11:01:54.606Z,34.55
2022-11-15T11:04:23.432Z,34.28
2022-11-15T11:06:53.275Z,37.33
2022-11-15T11:09:31.235Z,33.40
2022-11-15T11:12:00.259Z,35.72
2022-11-15T11:14:32.084Z,33.65
2022-11-15T11:17:06.408Z,36.60
2022-11-15T11:19:51.332Z,35.33
2022-11-15T11:22:25.375Z,33.15
2022-11-15T11:25:05.928Z,34.90
2022-11-15T11:27:44.824Z,34.42
2022-11-15T11:30:18.271Z,39.63
2022-11-15T11:33:11.957Z,35.85
2022-11-15T11:35:48.516Z,34.70
2022-11-15T11:38:36.676Z,36.50
2022-11-15T11:41:15.712Z,37.85
2022-11-15T11:43:52.798Z,35.88
2022-11-15T11:46:34.913Z,37.35
2022-11-15T11:49:10.243Z,36.95
2022-11-15T11:51:42.154Z,35.13
2022-11-15T11:54:14.880Z,36.13
2022-11-15T11:56:46.576Z,38.22
2022-11-15T11:59:19.976Z,35.35
2022-11-15T12:01:48.167Z,36.30
2022-11-15T12:04:20.463Z,41.28
2022-11-15T12:06:54.251Z,36.72
2022-11-15T12:09:26.380Z,38.50
2022-11-15T12:12:00.284Z,38.13
2022-11-15T12:14:33.955Z,38.83
2022-11-15T12:17:02.480Z,39.17
2022-11-15T12:19:31.900Z,38.72
2022-11-15T12:22:04.602Z,38.65
2022-11-15T12:24:37.435Z,39.45
2022-11-15T12:27:09.564Z,37.95
2022-11-15T12:29:40.699Z,40.20
2022-11-15T12:32:19.784Z,38.83
2022-11-15T12:34:49.070Z,37.75
2022-11-15T12:37:49.940Z,38.40
2022-11-15T12:40:26.685Z,36.28
2022-11-15T12:43:05.779Z,35.60
2022-11-15T12:45:35.565Z,36.38
2022-11-15T12:48:51.713Z,34.60
2022-11-15T12:51:22.642Z,36.40
2022-11-15T12:53:51.175Z,35.28
2022-11-15T12:56:24.216Z,35.75
2022-11-15T12:58:56.470Z,36.97
2022-11-15T13:02:07.590Z,35.22
2022-11-15T13:04:36.223Z,33.63
2022-11-15T13:07:06.829Z,37.08
2022-11-15T13:09:56.428Z,35.83
2022-11-15T13:12:59.504Z,38.80
2022-11-15T13:15:54.860Z,36.53
2022-11-15T13:18:38.290Z,50.42
2022-11-15T13:21:38.501Z,38.03
2022-11-15T13:24:07.304Z,37.22
2022-11-15T13:26:35.977Z,36.65
2022-11-15T13:29:04.512Z,37.88
2022-11-15T13:31:38.888Z,38.00
2022-11-15T13:34:49.352Z,40.88
2022-11-15T13:37:12.146Z,38.45
2022-11-15T13:39:40.566Z,41.88
2022-11-15T13:42:16.942Z,38.78
2022-11-15T13:44:57.282Z,39.97
2022-11-15T13:47:28.875Z,40.80
2022-11-15T13:49:59.496Z,42.10
2022-11-15T13:52:30.819Z,39.88
2022-11-15T13:55:02.282Z,39.42
2022-11-15T13:57:32.594Z,42.83
2022-11-15T14:00:04.116Z,41.17
2022-11-15T14:02:41.524Z,40.50
2022-11-15T14:05:18.660Z,39.58
2022-11-15T14:07:55.752Z,39.15
2022-11-15T14:10:32.717Z,39.63
2022-11-15T14:13:01.745Z,40.83
2022-11-15T14:15:33.205Z,39.30
2022-11-15T14:18:03.089Z,40.90
2022-11-15T14:20:33.761Z,41.42
2022-11-15T14:23:03.313Z,38.47
2022-11-15T14:25:32.413Z,38.50
2022-11-15T14:28:26.285Z,40.28
2022-11-15T14:30:56.577Z,41.92
2022-11-15T14:35:59.280Z,40.75
2022-11-15T14:38:28.117Z,44.78
2022-11-15T14:40:57.767Z,46.03
2022-11-15T14:43:26.437Z,44.92
2022-11-15T14:45:54.922Z,46.40
2022-11-15T14:48:23.953Z,48.22
2022-11-15T14:50:53.707Z,48.67
2022-11-15T14:53:23.131Z,47.22
2022-11-15T14:55:51.288Z,49.22
2022-11-15T14:58:19.763Z,48.30
2022-11-15T15:00:48.237Z,45.42
2022-11-15T15:03:16.736Z,46.35
2022-11-15T15:05:46.066Z,47.80
2022-11-15T15:08:15.867Z,45.40
2022-11-15T15:10:45.624Z,44.40
2022-11-15T15:13:18.954Z,43.47
2022-11-15T15:15:47.683Z,45.50
2022-11-15T15:18:16.492Z,47.60
2022-11-15T15:20:46.596Z,45.10
2022-11-15T15:23:20.938Z,45.50
2022-11-15T15:25:50.132Z,44.78
2022-11-15T15:28:18.738Z,47.65
2022-11-15T15:30:47.055Z,43.97
2022-11-15T15:33:15.470Z,46.88
2022-11-15T15:35:44.016Z,43.53
2022-11-15T15:38:14.122Z,43.17
2022-11-15T15:40:43.621Z,42.60
2022-11-15T15:43:12.027Z,43.53
2022-11-15T15:45:41.410Z,41.80
2022-11-15T15:48:13.085Z,46.20
2022-11-15T15:50:43.858Z,44.67
2022-11-15T15:53:13.150Z,43.08
2022-11-15T15:55:43.099Z,45.90
2022-11-15T16:00:40.097Z,43.88
2022-11-15T16:03:08.627Z,43.90
2022-11-15T16:05:37.074Z,46.88
2022-11-15T16:08:05.792Z,49.95
2022-11-15T16:10:35.756Z,44.47
2022-11-15T16:15:33.995Z,44.47
2022-11-15T16:18:03.253Z,44.03
2022-11-15T16:20:38.227Z,43.42
2022-11-15T16:23:09.657Z,43.92
2022-11-15T16:25:44.162Z,44.00
2022-11-15T16:28:21.903Z,40.88
2022-11-15T16:30:55.561Z,41.17
2022-11-15T16:33:25.620Z,39.83
2022-11-15T16:35:54.065Z,39.22
2022-11-15T16:38:22.504Z,41.70
2022-11-15T16:40:50.795Z,41.13
2022-11-15T16:43:20.612Z,44.40
2022-11-15T16:45:49.131Z,43.10
2022-11-15T16:48:23.820Z,44.17
2022-11-15T16:50:52.815Z,46.40
2022-11-15T16:53:21.219Z,46.42
2022-11-15T16:55:49.289Z,46.70
2022-11-15T16:58:17.777Z,45.47
2022-11-15T17:00:47.601Z,42.47
2022-11-15T17:03:16.195Z,42.85
2022-11-15T17:05:44.726Z,43.30
2022-11-15T17:08:13.135Z,41.40
2022-11-15T17:10:42.188Z,42.95
2022-11-15T17:13:13.318Z,44.35
2022-11-15T17:15:42.056Z,46.40
2022-11-15T17:18:15.420Z,46.28
2022-11-15T17:20:44.539Z,43.58
2022-11-15T17:23:15.201Z,46.63
2022-11-15T17:28:11.868Z,46.30
2022-11-15T17:30:43.000Z,45.90
2022-11-15T17:33:11.478Z,48.15
2022-11-15T17:35:41.382Z,48.83
2022-11-15T17:38:09.893Z,44.05
2022-11-15T17:40:37.965Z,47.88
2022-11-15T17:43:07.034Z,44.13
2022-11-15T17:45:35.494Z,45.88
2022-11-15T17:48:04.044Z,48.53
2022-11-15T17:50:32.505Z,46.95
2022-11-15T17:53:02.285Z,45.05
2022-11-15T17:55:30.274Z,44.08
2022-11-15T17:57:58.720Z,42.47
2022-11-15T18:00:27.063Z,46.40
2022-11-15T18:02:55.511Z,45.35
2022-11-15T18:05:24.046Z,44.88
2022-11-15T18:07:52.153Z,45.25
2022-11-15T18:10:21.940Z,43.70
2022-11-15T18:12:50.421Z,44.50
2022-11-15T18:15:19.158Z,43.95
2022-11-15T18:17:47.611Z,43.00
2022-11-15T18:20:16.927Z,45.92
2022-11-15T18:22:45.064Z,46.75
2022-11-15T18:25:15.930Z,48.50
2022-11-15T18:27:45.720Z,46.97
2022-11-15T18:30:14.503Z,42.63
2022-11-15T18:32:43.016Z,46.17
2022-11-15T18:35:11.581Z,45.25
2022-11-15T18:37:39.699Z,42.10
2022-11-15T18:40:09.568Z,46.72
2022-11-15T18:42:37.989Z,43.65
2022-11-15T18:45:09.657Z,41.55
2022-11-15T18:47:38.741Z,44.17
2022-11-15T18:50:08.006Z,43.30
2022-11-15T18:52:36.135Z,40.65
2022-11-15T18:55:05.081Z,42.25
2022-11-15T18:57:33.696Z,38.75
2022-11-15T19:00:02.136Z,40.55
2022-11-15T19:02:32.414Z,37.40
2022-11-15T19:05:00.832Z,38.13
2022-11-15T19:07:29.043Z,38.25
2022-11-15T19:09:57.745Z,38.17
2022-11-15T19:12:26.266Z,39.22
2022-11-15T19:14:54.689Z,34.40
2022-11-15T19:17:23.160Z,35.40
2022-11-15T19:19:52.554Z,35.88
2022-11-15T19:22:20.993Z,36.30
2022-11-15T19:24:49.451Z,36.47
2022-11-15T19:27:17.861Z,33.80
2022-11-15T19:29:46.221Z,34.72
2022-11-15T19:32:14.609Z,34.72
2022-11-15T19:34:42.747Z,32.03
2022-11-15T19:37:12.472Z,33.40
2022-11-15T19:39:41.486Z,31.08
2022-11-15T19:42:09.960Z,31.50
2022-11-15T19:44:38.521Z,29.73
2022-11-15T19:47:09.365Z,29.80
2022-11-15T19:49:37.470Z,29.95
2022-11-15T19:52:06.327Z,30.80
2022-11-15T19:54:36.179Z,29.95
2022-11-15T19:57:04.730Z,27.83
2022-11-15T19:59:33.129Z,26.88
2022-11-15T20:02:01.485Z,28.50
2022-11-15T20:04:29.670Z,29.23
2022-11-15T20:06:58.059Z,29.33
2022-11-15T20:09:26.529Z,29.67
2022-11-15T20:11:58.703Z,30.08
2022-11-15T20:14:28.106Z,27.98
2022-11-15T20:16:56.154Z,28.58
2022-11-15T20:19:24.686Z,25.75
2022-11-15T20:21:53.108Z,28.88
2022-11-15T20:24:21.624Z,28.13
2022-11-15T20:26:50.106Z,28.55
2022-11-15T20:29:20.116Z,27.63
2022-11-15T20:31:48.293Z,26.83
2022-11-15T20:34:16.707Z,27.83
2022-11-15T20:36:45.180Z,28.30
2022-11-15T20:39:13.604Z,30.48
2022-11-15T20:41:42.025Z,28.10
2022-11-15T20:44:10.366Z,28.05
2022-11-15T20:46:39.833Z,26.20
2022-11-15T20:49:08.240Z,25.33
2022-11-15T20:51:36.969Z,26.50
2022-11-15T20:54:06.257Z,26.92
2022-11-15T20:56:34.638Z,27.17
2022-11-15T20:59:03.191Z,26.80
2022-11-15T21:01:31.929Z,26.98
2022-11-15T21:04:01.852Z,27.92
2022-11-15T21:06:30.660Z,26.40
2022-11-15T21:09:16.623Z,26.35
2022-11-15T21:12:02.716Z,27.30
2022-11-15T21:14:31.227Z,26.77
2022-11-15T21:16:59.748Z,26.20
2022-11-15T21:19:36.676Z,28.20
2022-11-15T21:22:06.863Z,27.35
2022-11-15T21:24:35.285Z,26.45
2022-11-15T21:27:03.687Z,27.85
2022-11-15T21:29:37.527Z,26.42
2022-11-15T21:32:07.291Z,22.42
2022-11-15T21:34:37.341Z,23.57
2022-11-15T21:37:06.068Z,23.80
2022-11-15T21:39:34.619Z,21.65
2022-11-15T21:42:02.970Z,21.15
2022-11-15T21:44:31.732Z,21.20
2022-11-15T21:47:00.237Z,21.77
2022-11-15T21:49:28.230Z,21.50
2022-11-15T21:51:57.980Z,20.02
2022-11-15T21:54:26.408Z,17.83
2022-11-15T21:56:54.843Z,18.90
2022-11-15T21:59:23.316Z,17.98
2022-11-15T22:02:09.097Z,18.25
2022-11-15T22:04:37.674Z,18.65
2022-11-15T22:07:07.911Z,19.35
2022-11-15T22:09:36.749Z,18.73
2022-11-15T22:12:05.327Z,18.40
2022-11-15T22:14:33.767Z,19.33
2022-11-15T22:17:02.434Z,20.48
2022-11-15T22:19:30.791Z,19.73
2022-11-15T22:21:59.323Z,20.15
2022-11-15T22:24:29.411Z,20.80
2022-11-15T22:26:58.126Z,20.50
2022-11-15T22:29:26.860Z,19.80
2022-11-15T22:31:54.943Z,21.08
2022-11-15T22:34:23.382Z,21.67
2022-11-15T22:37:19.121Z,21.98
2022-11-15T22:39:42.590Z,21.88
2022-11-15T22:42:11.148Z,19.90
2022-11-15T22:44:39.682Z,20.63
2022-11-15T22:47:08.189Z,21.40
2022-11-15T22:49:36.265Z,18.20
2022-11-15T22:52:04.814Z,20.42
2022-11-15T22:54:33.239Z,19.15
2022-11-15T22:57:04.158Z,18.05
2022-11-15T22:59:33.014Z,19.45
2022-11-15T23:02:01.577Z,18.98
2022-11-15T23:04:30.138Z,20.10
2022-11-15T23:06:58.700Z,18.77
2022-11-15T23:09:27.289Z,19.67
2022-11-15T23:12:13.415Z,19.27
2022-11-15T23:14:43.379Z,19.55
2022-11-15T23:17:12.005Z,18.25
2022-11-15T23:19:40.338Z,19.52
2022-11-15T23:22:26.225Z,18.70
2022-11-15T23:24:55.937Z,19.52
2022-11-15T23:27:24.430Z,19.52
2022-11-15T23:30:11.475Z,21.95
2022-11-15T23:32:57.204Z,18.77
2022-11-15T23:35:26.054Z,20.40
2022-11-15T23:37:54.210Z,19.67
2022-11-15T23:40:22.590Z,20.20
2022-11-15T23:42:51.089Z,18.85
2022-11-15T23:45:20.895Z,20.40
2022-11-15T23:47:49.327Z,21.55
2022-11-15T23:50:18.341Z,22.00
2022-11-15T23:52:46.730Z,21.33
2022-11-15T23:55:15.388Z,21.52
2022-11-15T23:57:43.770Z,21.15
